Route Details

Aircraft Information
Group: European Fleet
Types: A30F, B738
Route Data
Distance: 396nm
Duration: 1h 10m
Origin METAR: EGFF 260250Z AUTO 12010KT 9999 BKN005/// OVC008/// //////TCU 12/11 Q1009
Dest. METAR: EDDK 260250Z AUTO 17003KT CAVOK 10/10 Q1017 NOSIG
Freight Data
(for May 26, 2024)
Load Factor:
101%
Manifested Cargo: 60,130lbs
Financial History
Total Freight: 280,331lbs
Average Load: 0lbs/flt
Fuel Used: 52,616lbs
Avg. Fuel Used: 0lbs/flt
Fuel Expense: $29,354
Avg. Fuel Expense: $0
Avg. Fuel Cost: $0/lbs
Total Gross Income: $644,761
Pilot Pay: $1,404
Total Expenses: $139,534
Total Revenue: $473,074
Average Revenue: $0

Capitol Logistics 565




EGFF
Cardiff International Airport
Cardiff, GB
EDDK
Cologne Bonn Airport
Cologne, DE